sensor_id;sensor_type;location;lat;lon;timestamp;P1;durP1;ratioP1;P2;durP2;ratioP2
8337;SDS011;4206;48.634;9.516;2022-07-17T00:01:16;2.97;;;2.10;;
8337;SDS011;4206;48.634;9.516;2022-07-17T00:03:41;3.53;;;2.50;;
8337;SDS011;4206;48.634;9.516;2022-07-17T00:06:07;5.83;;;2.20;;
8337;SDS011;4206;48.634;9.516;2022-07-17T00:08:33;3.57;;;2.03;;
8337;SDS011;4206;48.634;9.516;2022-07-17T00:10:59;3.23;;;2.03;;
8337;SDS011;4206;48.634;9.516;2022-07-17T00:13:26;3.87;;;2.23;;
8337;SDS011;4206;48.634;9.516;2022-07-17T00:15:52;4.03;;;2.30;;
8337;SDS011;4206;48.634;9.516;2022-07-17T00:18:17;2.60;;;2.17;;
8337;SDS011;4206;48.634;9.516;2022-07-17T00:20:43;2.53;;;2.30;;
8337;SDS011;4206;48.634;9.516;2022-07-17T00:23:09;4.30;;;2.30;;
8337;SDS011;4206;48.634;9.516;2022-07-17T00:25:35;3.03;;;2.10;;
8337;SDS011;4206;48.634;9.516;2022-07-17T00:28:01;3.10;;;2.60;;
8337;SDS011;4206;48.634;9.516;2022-07-17T00:30:27;4.13;;;2.30;;
8337;SDS011;4206;48.634;9.516;2022-07-17T00:32:53;4.27;;;2.63;;
8337;SDS011;4206;48.634;9.516;2022-07-17T00:35:18;3.10;;;2.20;;
8337;SDS011;4206;48.634;9.516;2022-07-17T00:37:45;2.83;;;2.47;;
8337;SDS011;4206;48.634;9.516;2022-07-17T00:40:13;3.40;;;2.43;;
8337;SDS011;4206;48.634;9.516;2022-07-17T00:42:43;2.63;;;2.07;;
8337;SDS011;4206;48.634;9.516;2022-07-17T00:45:09;6.40;;;2.87;;
8337;SDS011;4206;48.634;9.516;2022-07-17T00:47:48;3.27;;;2.57;;
8337;SDS011;4206;48.634;9.516;2022-07-17T00:50:15;2.83;;;2.43;;
8337;SDS011;4206;48.634;9.516;2022-07-17T00:52:41;3.30;;;2.83;;
8337;SDS011;4206;48.634;9.516;2022-07-17T00:55:07;4.80;;;2.60;;
8337;SDS011;4206;48.634;9.516;2022-07-17T00:57:35;4.37;;;2.50;;
8337;SDS011;4206;48.634;9.516;2022-07-17T01:00:04;3.87;;;2.87;;
8337;SDS011;4206;48.634;9.516;2022-07-17T01:02:34;4.33;;;2.80;;
8337;SDS011;4206;48.634;9.516;2022-07-17T01:05:00;5.80;;;3.10;;
8337;SDS011;4206;48.634;9.516;2022-07-17T01:07:26;6.93;;;3.73;;
8337;SDS011;4206;48.634;9.516;2022-07-17T01:09:52;4.57;;;3.00;;
8337;SDS011;4206;48.634;9.516;2022-07-17T01:12:17;8.10;;;3.37;;
8337;SDS011;4206;48.634;9.516;2022-07-17T01:14:43;4.00;;;2.97;;
8337;SDS011;4206;48.634;9.516;2022-07-17T01:17:09;4.10;;;3.00;;
8337;SDS011;4206;48.634;9.516;2022-07-17T01:19:36;4.53;;;2.93;;
8337;SDS011;4206;48.634;9.516;2022-07-17T01:22:02;2.93;;;2.63;;
8337;SDS011;4206;48.634;9.516;2022-07-17T01:24:27;3.00;;;2.30;;
8337;SDS011;4206;48.634;9.516;2022-07-17T01:26:53;2.80;;;2.60;;
8337;SDS011;4206;48.634;9.516;2022-07-17T01:29:19;2.60;;;2.40;;
8337;SDS011;4206;48.634;9.516;2022-07-17T01:31:44;3.10;;;2.60;;
8337;SDS011;4206;48.634;9.516;2022-07-17T01:34:11;4.77;;;2.77;;
8337;SDS011;4206;48.634;9.516;2022-07-17T01:36:38;2.73;;;2.53;;
8337;SDS011;4206;48.634;9.516;2022-07-17T01:39:04;3.70;;;2.97;;
8337;SDS011;4206;48.634;9.516;2022-07-17T01:41:30;3.50;;;2.40;;
8337;SDS011;4206;48.634;9.516;2022-07-17T01:43:56;3.63;;;2.90;;
8337;SDS011;4206;48.634;9.516;2022-07-17T01:46:22;2.70;;;2.50;;
8337;SDS011;4206;48.634;9.516;2022-07-17T01:48:48;5.63;;;2.80;;
8337;SDS011;4206;48.634;9.516;2022-07-17T01:51:13;3.37;;;2.87;;
8337;SDS011;4206;48.634;9.516;2022-07-17T01:53:39;3.63;;;2.70;;
8337;SDS011;4206;48.634;9.516;2022-07-17T01:56:05;4.73;;;3.00;;
8337;SDS011;4206;48.634;9.516;2022-07-17T01:58:31;4.37;;;3.13;;
8337;SDS011;4206;48.634;9.516;2022-07-17T02:00:57;4.60;;;3.07;;
8337;SDS011;4206;48.634;9.516;2022-07-17T02:03:23;4.00;;;2.67;;
8337;SDS011;4206;48.634;9.516;2022-07-17T02:05:49;3.23;;;2.90;;
8337;SDS011;4206;48.634;9.516;2022-07-17T02:08:14;4.37;;;3.07;;
8337;SDS011;4206;48.634;9.516;2022-07-17T02:10:40;5.17;;;3.77;;
8337;SDS011;4206;48.634;9.516;2022-07-17T02:13:06;5.20;;;3.33;;
8337;SDS011;4206;48.634;9.516;2022-07-17T02:15:31;6.17;;;3.53;;
8337;SDS011;4206;48.634;9.516;2022-07-17T02:17:57;3.47;;;2.53;;
8337;SDS011;4206;48.634;9.516;2022-07-17T02:20:23;4.03;;;3.17;;
8337;SDS011;4206;48.634;9.516;2022-07-17T02:22:49;6.33;;;3.10;;
8337;SDS011;4206;48.634;9.516;2022-07-17T02:25:15;7.03;;;3.57;;
8337;SDS011;4206;48.634;9.516;2022-07-17T02:27:41;5.40;;;2.90;;
8337;SDS011;4206;48.634;9.516;2022-07-17T02:30:10;3.40;;;3.10;;
8337;SDS011;4206;48.634;9.516;2022-07-17T02:32:38;4.87;;;3.37;;
8337;SDS011;4206;48.634;9.516;2022-07-17T02:35:04;3.80;;;3.30;;
8337;SDS011;4206;48.634;9.516;2022-07-17T02:37:31;3.60;;;3.30;;
8337;SDS011;4206;48.634;9.516;2022-07-17T02:39:56;4.60;;;2.93;;
8337;SDS011;4206;48.634;9.516;2022-07-17T02:42:24;4.30;;;3.47;;
8337;SDS011;4206;48.634;9.516;2022-07-17T02:44:51;3.13;;;2.90;;
8337;SDS011;4206;48.634;9.516;2022-07-17T02:47:21;4.33;;;3.10;;
8337;SDS011;4206;48.634;9.516;2022-07-17T02:49:48;5.20;;;3.13;;
8337;SDS011;4206;48.634;9.516;2022-07-17T02:52:14;3.60;;;3.20;;
8337;SDS011;4206;48.634;9.516;2022-07-17T02:54:40;5.10;;;3.40;;
8337;SDS011;4206;48.634;9.516;2022-07-17T02:57:06;4.93;;;3.43;;
8337;SDS011;4206;48.634;9.516;2022-07-17T02:59:32;3.10;;;2.80;;
8337;SDS011;4206;48.634;9.516;2022-07-17T03:01:58;4.93;;;3.30;;
8337;SDS011;4206;48.634;9.516;2022-07-17T03:04:24;6.27;;;3.47;;
8337;SDS011;4206;48.634;9.516;2022-07-17T03:06:50;4.60;;;2.90;;
8337;SDS011;4206;48.634;9.516;2022-07-17T03:09:16;7.57;;;3.43;;
8337;SDS011;4206;48.634;9.516;2022-07-17T03:11:42;4.83;;;3.07;;
8337;SDS011;4206;48.634;9.516;2022-07-17T03:14:09;5.53;;;3.50;;
8337;SDS011;4206;48.634;9.516;2022-07-17T03:16:35;7.27;;;3.20;;
8337;SDS011;4206;48.634;9.516;2022-07-17T03:19:01;4.87;;;3.37;;
8337;SDS011;4206;48.634;9.516;2022-07-17T03:21:27;3.80;;;3.43;;
8337;SDS011;4206;48.634;9.516;2022-07-17T03:23:53;3.27;;;2.97;;
8337;SDS011;4206;48.634;9.516;2022-07-17T03:26:19;3.90;;;3.50;;
8337;SDS011;4206;48.634;9.516;2022-07-17T03:28:45;7.90;;;3.23;;
8337;SDS011;4206;48.634;9.516;2022-07-17T03:31:11;4.90;;;3.17;;
8337;SDS011;4206;48.634;9.516;2022-07-17T03:33:37;5.77;;;3.30;;
8337;SDS011;4206;48.634;9.516;2022-07-17T03:36:03;12.70;;;3.77;;
8337;SDS011;4206;48.634;9.516;2022-07-17T03:38:29;3.63;;;3.17;;
8337;SDS011;4206;48.634;9.516;2022-07-17T03:40:55;3.60;;;3.13;;
8337;SDS011;4206;48.634;9.516;2022-07-17T03:43:21;4.57;;;3.10;;
8337;SDS011;4206;48.634;9.516;2022-07-17T03:45:46;4.33;;;3.40;;
8337;SDS011;4206;48.634;9.516;2022-07-17T03:48:12;5.83;;;3.57;;
8337;SDS011;4206;48.634;9.516;2022-07-17T03:50:37;5.10;;;3.40;;
8337;SDS011;4206;48.634;9.516;2022-07-17T03:53:03;4.27;;;3.57;;
8337;SDS011;4206;48.634;9.516;2022-07-17T03:55:29;7.40;;;3.80;;
8337;SDS011;4206;48.634;9.516;2022-07-17T03:57:54;4.47;;;3.60;;
8337;SDS011;4206;48.634;9.516;2022-07-17T04:00:20;3.80;;;2.97;;
8337;SDS011;4206;48.634;9.516;2022-07-17T04:02:46;5.70;;;3.67;;
8337;SDS011;4206;48.634;9.516;2022-07-17T04:05:11;3.40;;;3.10;;
8337;SDS011;4206;48.634;9.516;2022-07-17T04:07:38;4.60;;;3.20;;
8337;SDS011;4206;48.634;9.516;2022-07-17T04:10:05;6.50;;;3.50;;
8337;SDS011;4206;48.634;9.516;2022-07-17T04:12:32;4.40;;;3.00;;
8337;SDS011;4206;48.634;9.516;2022-07-17T04:14:58;6.70;;;3.50;;
8337;SDS011;4206;48.634;9.516;2022-07-17T04:17:24;4.97;;;3.27;;
8337;SDS011;4206;48.634;9.516;2022-07-17T04:19:50;3.43;;;3.10;;
8337;SDS011;4206;48.634;9.516;2022-07-17T04:22:16;3.80;;;3.47;;
8337;SDS011;4206;48.634;9.516;2022-07-17T04:24:42;3.97;;;3.37;;
8337;SDS011;4206;48.634;9.516;2022-07-17T04:27:08;4.53;;;3.07;;
8337;SDS011;4206;48.634;9.516;2022-07-17T04:29:34;4.60;;;3.10;;
8337;SDS011;4206;48.634;9.516;2022-07-17T04:32:00;3.70;;;3.30;;
8337;SDS011;4206;48.634;9.516;2022-07-17T04:34:26;5.10;;;3.80;;
8337;SDS011;4206;48.634;9.516;2022-07-17T04:36:52;5.53;;;3.83;;
8337;SDS011;4206;48.634;9.516;2022-07-17T04:39:18;4.70;;;3.50;;
8337;SDS011;4206;48.634;9.516;2022-07-17T04:41:43;4.40;;;4.00;;
8337;SDS011;4206;48.634;9.516;2022-07-17T04:44:09;5.10;;;4.17;;
8337;SDS011;4206;48.634;9.516;2022-07-17T04:46:35;5.93;;;3.80;;
8337;SDS011;4206;48.634;9.516;2022-07-17T04:49:00;4.80;;;3.53;;
8337;SDS011;4206;48.634;9.516;2022-07-17T04:51:26;5.87;;;4.10;;
8337;SDS011;4206;48.634;9.516;2022-07-17T04:53:51;4.30;;;3.80;;
8337;SDS011;4206;48.634;9.516;2022-07-17T04:56:17;6.57;;;3.50;;
8337;SDS011;4206;48.634;9.516;2022-07-17T04:58:43;4.33;;;3.90;;
8337;SDS011;4206;48.634;9.516;2022-07-17T05:01:09;5.03;;;3.50;;
8337;SDS011;4206;48.634;9.516;2022-07-17T05:03:34;6.03;;;3.60;;
8337;SDS011;4206;48.634;9.516;2022-07-17T05:06:00;5.43;;;3.73;;
8337;SDS011;4206;48.634;9.516;2022-07-17T05:08:25;5.30;;;3.57;;
8337;SDS011;4206;48.634;9.516;2022-07-17T05:10:51;3.83;;;3.53;;
8337;SDS011;4206;48.634;9.516;2022-07-17T05:13:17;4.87;;;3.87;;
8337;SDS011;4206;48.634;9.516;2022-07-17T05:15:42;11.10;;;3.80;;
8337;SDS011;4206;48.634;9.516;2022-07-17T05:18:08;4.77;;;3.50;;
8337;SDS011;4206;48.634;9.516;2022-07-17T05:20:34;4.43;;;3.27;;
8337;SDS011;4206;48.634;9.516;2022-07-17T05:23:00;3.77;;;3.00;;
8337;SDS011;4206;48.634;9.516;2022-07-17T05:25:26;5.00;;;3.20;;
8337;SDS011;4206;48.634;9.516;2022-07-17T05:27:51;3.60;;;3.30;;
8337;SDS011;4206;48.634;9.516;2022-07-17T05:30:17;4.73;;;3.70;;
8337;SDS011;4206;48.634;9.516;2022-07-17T05:32:42;4.20;;;3.10;;
8337;SDS011;4206;48.634;9.516;2022-07-17T05:35:08;4.40;;;3.10;;
8337;SDS011;4206;48.634;9.516;2022-07-17T05:37:34;3.40;;;3.10;;
8337;SDS011;4206;48.634;9.516;2022-07-17T05:40:00;6.57;;;3.60;;
8337;SDS011;4206;48.634;9.516;2022-07-17T05:42:25;4.70;;;3.73;;
8337;SDS011;4206;48.634;9.516;2022-07-17T05:44:51;7.57;;;3.70;;
8337;SDS011;4206;48.634;9.516;2022-07-17T05:47:17;4.33;;;3.30;;
8337;SDS011;4206;48.634;9.516;2022-07-17T05:49:42;3.93;;;3.47;;
8337;SDS011;4206;48.634;9.516;2022-07-17T05:52:08;6.20;;;3.50;;
8337;SDS011;4206;48.634;9.516;2022-07-17T05:54:34;4.83;;;4.07;;
8337;SDS011;4206;48.634;9.516;2022-07-17T05:57:00;5.70;;;3.87;;
8337;SDS011;4206;48.634;9.516;2022-07-17T05:59:26;3.53;;;3.20;;
8337;SDS011;4206;48.634;9.516;2022-07-17T06:01:51;3.80;;;3.40;;
8337;SDS011;4206;48.634;9.516;2022-07-17T06:04:20;4.70;;;3.80;;
8337;SDS011;4206;48.634;9.516;2022-07-17T06:06:46;3.73;;;3.33;;
8337;SDS011;4206;48.634;9.516;2022-07-17T06:09:11;4.73;;;3.90;;
8337;SDS011;4206;48.634;9.516;2022-07-17T06:11:37;5.80;;;3.67;;
8337;SDS011;4206;48.634;9.516;2022-07-17T06:14:03;4.20;;;3.80;;
8337;SDS011;4206;48.634;9.516;2022-07-17T06:16:29;4.70;;;3.80;;
8337;SDS011;4206;48.634;9.516;2022-07-17T06:18:54;8.20;;;4.27;;
8337;SDS011;4206;48.634;9.516;2022-07-17T06:21:20;7.03;;;3.90;;
8337;SDS011;4206;48.634;9.516;2022-07-17T06:23:45;3.50;;;3.20;;
8337;SDS011;4206;48.634;9.516;2022-07-17T06:26:11;3.90;;;3.50;;
8337;SDS011;4206;48.634;9.516;2022-07-17T06:28:37;5.30;;;3.33;;
8337;SDS011;4206;48.634;9.516;2022-07-17T06:31:02;4.27;;;2.90;;
8337;SDS011;4206;48.634;9.516;2022-07-17T06:33:28;6.03;;;3.53;;
8337;SDS011;4206;48.634;9.516;2022-07-17T06:35:54;3.80;;;3.40;;
8337;SDS011;4206;48.634;9.516;2022-07-17T06:38:19;5.07;;;3.53;;
8337;SDS011;4206;48.634;9.516;2022-07-17T06:40:45;4.90;;;3.33;;
8337;SDS011;4206;48.634;9.516;2022-07-17T06:43:11;3.63;;;2.90;;
8337;SDS011;4206;48.634;9.516;2022-07-17T06:45:36;3.60;;;3.30;;
8337;SDS011;4206;48.634;9.516;2022-07-17T06:48:02;3.27;;;2.97;;
8337;SDS011;4206;48.634;9.516;2022-07-17T06:50:29;3.43;;;3.00;;
8337;SDS011;4206;48.634;9.516;2022-07-17T06:52:54;2.80;;;2.60;;
8337;SDS011;4206;48.634;9.516;2022-07-17T06:55:20;4.67;;;2.57;;
8337;SDS011;4206;48.634;9.516;2022-07-17T06:57:46;5.67;;;2.87;;
8337;SDS011;4206;48.634;9.516;2022-07-17T07:00:12;4.17;;;2.70;;
8337;SDS011;4206;48.634;9.516;2022-07-17T07:02:43;4.90;;;2.57;;
8337;SDS011;4206;48.634;9.516;2022-07-17T07:05:09;8.30;;;2.90;;
8337;SDS011;4206;48.634;9.516;2022-07-17T07:07:35;5.23;;;3.10;;
8337;SDS011;4206;48.634;9.516;2022-07-17T07:10:01;3.70;;;2.90;;
8337;SDS011;4206;48.634;9.516;2022-07-17T07:12:26;8.20;;;3.10;;
8337;SDS011;4206;48.634;9.516;2022-07-17T07:14:53;3.40;;;2.93;;
8337;SDS011;4206;48.634;9.516;2022-07-17T07:17:19;6.00;;;2.87;;
8337;SDS011;4206;48.634;9.516;2022-07-17T07:19:45;3.07;;;2.77;;
8337;SDS011;4206;48.634;9.516;2022-07-17T07:22:11;5.90;;;2.53;;
8337;SDS011;4206;48.634;9.516;2022-07-17T07:24:36;4.03;;;2.97;;
8337;SDS011;4206;48.634;9.516;2022-07-17T07:27:02;7.87;;;5.17;;
8337;SDS011;4206;48.634;9.516;2022-07-17T07:29:28;2.87;;;2.00;;
8337;SDS011;4206;48.634;9.516;2022-07-17T07:31:54;3.20;;;2.20;;
8337;SDS011;4206;48.634;9.516;2022-07-17T07:34:20;3.03;;;2.20;;
8337;SDS011;4206;48.634;9.516;2022-07-17T07:36:45;3.93;;;1.87;;
8337;SDS011;4206;48.634;9.516;2022-07-17T07:39:11;3.30;;;2.03;;
8337;SDS011;4206;48.634;9.516;2022-07-17T07:41:37;2.37;;;1.83;;
8337;SDS011;4206;48.634;9.516;2022-07-17T07:44:02;2.77;;;1.40;;
8337;SDS011;4206;48.634;9.516;2022-07-17T07:46:28;2.77;;;2.30;;
8337;SDS011;4206;48.634;9.516;2022-07-17T07:48:54;3.00;;;1.63;;
8337;SDS011;4206;48.634;9.516;2022-07-17T07:51:20;2.47;;;1.87;;
8337;SDS011;4206;48.634;9.516;2022-07-17T07:53:46;2.93;;;1.50;;
8337;SDS011;4206;48.634;9.516;2022-07-17T07:56:12;2.93;;;2.13;;
8337;SDS011;4206;48.634;9.516;2022-07-17T07:58:37;1.70;;;1.60;;
8337;SDS011;4206;48.634;9.516;2022-07-17T08:01:03;2.40;;;1.53;;
8337;SDS011;4206;48.634;9.516;2022-07-17T08:03:29;3.43;;;1.73;;
8337;SDS011;4206;48.634;9.516;2022-07-17T08:05:55;3.97;;;1.80;;
8337;SDS011;4206;48.634;9.516;2022-07-17T08:08:20;3.03;;;1.50;;
8337;SDS011;4206;48.634;9.516;2022-07-17T08:10:46;2.17;;;1.30;;
8337;SDS011;4206;48.634;9.516;2022-07-17T08:13:12;1.70;;;1.60;;
8337;SDS011;4206;48.634;9.516;2022-07-17T08:15:37;4.43;;;1.70;;
8337;SDS011;4206;48.634;9.516;2022-07-17T08:18:03;2.60;;;1.10;;
8337;SDS011;4206;48.634;9.516;2022-07-17T08:20:29;2.90;;;1.57;;
8337;SDS011;4206;48.634;9.516;2022-07-17T08:22:55;1.50;;;1.40;;
8337;SDS011;4206;48.634;9.516;2022-07-17T08:25:23;2.87;;;1.43;;
8337;SDS011;4206;48.634;9.516;2022-07-17T08:27:49;2.20;;;1.50;;
8337;SDS011;4206;48.634;9.516;2022-07-17T08:30:16;3.57;;;1.50;;
8337;SDS011;4206;48.634;9.516;2022-07-17T08:32:41;3.50;;;1.47;;
8337;SDS011;4206;48.634;9.516;2022-07-17T08:35:08;3.23;;;1.33;;
8337;SDS011;4206;48.634;9.516;2022-07-17T08:40:17;3.00;;;1.70;;
8337;SDS011;4206;48.634;9.516;2022-07-17T08:42:46;2.33;;;1.90;;
8337;SDS011;4206;48.634;9.516;2022-07-17T08:45:12;2.47;;;1.73;;
8337;SDS011;4206;48.634;9.516;2022-07-17T08:47:38;2.03;;;1.30;;
8337;SDS011;4206;48.634;9.516;2022-07-17T08:50:04;5.50;;;1.58;;
8337;SDS011;4206;48.634;9.516;2022-07-17T08:52:30;6.75;;;1.85;;
8337;SDS011;4206;48.634;9.516;2022-07-17T08:54:56;1.85;;;1.50;;
8337;SDS011;4206;48.634;9.516;2022-07-17T08:57:22;3.95;;;1.77;;
8337;SDS011;4206;48.634;9.516;2022-07-17T08:59:48;3.60;;;1.55;;
8337;SDS011;4206;48.634;9.516;2022-07-17T09:02:14;3.90;;;1.38;;
8337;SDS011;4206;48.634;9.516;2022-07-17T09:04:40;3.90;;;1.40;;
8337;SDS011;4206;48.634;9.516;2022-07-17T09:07:06;3.78;;;1.85;;
8337;SDS011;4206;48.634;9.516;2022-07-17T09:09:32;2.10;;;1.50;;
8337;SDS011;4206;48.634;9.516;2022-07-17T09:11:59;1.55;;;1.40;;
8337;SDS011;4206;48.634;9.516;2022-07-17T09:14:35;2.45;;;1.30;;
8337;SDS011;4206;48.634;9.516;2022-07-17T09:17:04;2.33;;;1.13;;
8337;SDS011;4206;48.634;9.516;2022-07-17T09:19:31;4.35;;;1.45;;
8337;SDS011;4206;48.634;9.516;2022-07-17T09:27:14;1.60;;;1.38;;
8337;SDS011;4206;48.634;9.516;2022-07-17T09:29:56;4.43;;;1.60;;
8337;SDS011;4206;48.634;9.516;2022-07-17T09:32:33;2.13;;;1.70;;
8337;SDS011;4206;48.634;9.516;2022-07-17T09:35:00;2.92;;;1.80;;
8337;SDS011;4206;48.634;9.516;2022-07-17T09:37:28;1.92;;;1.20;;
8337;SDS011;4206;48.634;9.516;2022-07-17T09:39:55;1.60;;;1.27;;
8337;SDS011;4206;48.634;9.516;2022-07-17T09:42:22;8.00;;;1.80;;
8337;SDS011;4206;48.634;9.516;2022-07-17T09:47:34;1.85;;;1.60;;
8337;SDS011;4206;48.634;9.516;2022-07-17T09:50:02;1.23;;;1.13;;
8337;SDS011;4206;48.634;9.516;2022-07-17T09:52:30;1.80;;;1.70;;
8337;SDS011;4206;48.634;9.516;2022-07-17T09:54:58;3.03;;;1.80;;
8337;SDS011;4206;48.634;9.516;2022-07-17T09:57:25;2.35;;;1.50;;
8337;SDS011;4206;48.634;9.516;2022-07-17T09:59:54;2.60;;;1.67;;
8337;SDS011;4206;48.634;9.516;2022-07-17T10:02:20;2.10;;;1.90;;
8337;SDS011;4206;48.634;9.516;2022-07-17T10:04:47;3.30;;;1.85;;
8337;SDS011;4206;48.634;9.516;2022-07-17T10:07:13;1.50;;;1.40;;
8337;SDS011;4206;48.634;9.516;2022-07-17T10:09:39;1.77;;;1.67;;
8337;SDS011;4206;48.634;9.516;2022-07-17T10:12:06;1.42;;;1.33;;
8337;SDS011;4206;48.634;9.516;2022-07-17T10:14:33;4.65;;;1.88;;
8337;SDS011;4206;48.634;9.516;2022-07-17T10:17:08;1.65;;;1.55;;
8337;SDS011;4206;48.634;9.516;2022-07-17T10:19:33;1.65;;;1.55;;
8337;SDS011;4206;48.634;9.516;2022-07-17T10:22:09;1.88;;;1.58;;
8337;SDS011;4206;48.634;9.516;2022-07-17T10:24:44;1.70;;;1.60;;
8337;SDS011;4206;48.634;9.516;2022-07-17T10:32:36;1.80;;;1.67;;
8337;SDS011;4206;48.634;9.516;2022-07-17T10:35:04;2.30;;;1.45;;
8337;SDS011;4206;48.634;9.516;2022-07-17T10:37:33;1.67;;;1.42;;
8337;SDS011;4206;48.634;9.516;2022-07-17T10:45:24;2.17;;;1.65;;
8337;SDS011;4206;48.634;9.516;2022-07-17T10:47:55;1.90;;;1.65;;
8337;SDS011;4206;48.634;9.516;2022-07-17T10:50:26;2.25;;;1.40;;
8337;SDS011;4206;48.634;9.516;2022-07-17T10:55:58;3.05;;;1.30;;
8337;SDS011;4206;48.634;9.516;2022-07-17T10:58:29;2.78;;;1.40;;
8337;SDS011;4206;48.634;9.516;2022-07-17T11:03:47;1.50;;;1.40;;
8337;SDS011;4206;48.634;9.516;2022-07-17T11:08:45;1.27;;;1.17;;
8337;SDS011;4206;48.634;9.516;2022-07-17T11:11:17;2.65;;;1.50;;
8337;SDS011;4206;48.634;9.516;2022-07-17T11:13:45;2.35;;;1.30;;
8337;SDS011;4206;48.634;9.516;2022-07-17T11:16:11;1.80;;;1.35;;
8337;SDS011;4206;48.634;9.516;2022-07-17T11:18:37;1.75;;;1.58;;
8337;SDS011;4206;48.634;9.516;2022-07-17T11:21:12;4.45;;;1.98;;
8337;SDS011;4206;48.634;9.516;2022-07-17T11:23:37;5.63;;;1.80;;
8337;SDS011;4206;48.634;9.516;2022-07-17T11:26:16;1.55;;;1.45;;
8337;SDS011;4206;48.634;9.516;2022-07-17T11:28:43;2.17;;;1.98;;
8337;SDS011;4206;48.634;9.516;2022-07-17T11:33:57;2.35;;;1.55;;
8337;SDS011;4206;48.634;9.516;2022-07-17T11:38:55;4.28;;;1.90;;
8337;SDS011;4206;48.634;9.516;2022-07-17T11:41:23;1.70;;;1.52;;
8337;SDS011;4206;48.634;9.516;2022-07-17T11:43:56;1.60;;;1.50;;
8337;SDS011;4206;48.634;9.516;2022-07-17T11:46:22;2.78;;;1.60;;
8337;SDS011;4206;48.634;9.516;2022-07-17T11:48:51;3.50;;;1.55;;
8337;SDS011;4206;48.634;9.516;2022-07-17T11:51:33;2.25;;;1.40;;
8337;SDS011;4206;48.634;9.516;2022-07-17T11:54:10;1.85;;;1.67;;
8337;SDS011;4206;48.634;9.516;2022-07-17T11:56:38;2.85;;;1.40;;
8337;SDS011;4206;48.634;9.516;2022-07-17T11:59:05;2.55;;;1.73;;
8337;SDS011;4206;48.634;9.516;2022-07-17T12:01:40;2.00;;;1.90;;
8337;SDS011;4206;48.634;9.516;2022-07-17T12:04:08;2.13;;;1.70;;
8337;SDS011;4206;48.634;9.516;2022-07-17T12:06:35;5.07;;;2.03;;
8337;SDS011;4206;48.634;9.516;2022-07-17T12:09:01;2.72;;;2.30;;
8337;SDS011;4206;48.634;9.516;2022-07-17T12:11:27;2.67;;;1.65;;
8337;SDS011;4206;48.634;9.516;2022-07-17T12:13:53;2.28;;;2.08;;
8337;SDS011;4206;48.634;9.516;2022-07-17T12:16:20;1.70;;;1.60;;
8337;SDS011;4206;48.634;9.516;2022-07-17T12:18:58;3.25;;;1.88;;
8337;SDS011;4206;48.634;9.516;2022-07-17T12:21:25;2.75;;;1.75;;
8337;SDS011;4206;48.634;9.516;2022-07-17T12:23:56;1.80;;;1.70;;
8337;SDS011;4206;48.634;9.516;2022-07-17T12:26:25;2.13;;;1.60;;
8337;SDS011;4206;48.634;9.516;2022-07-17T12:28:51;1.73;;;1.63;;
8337;SDS011;4206;48.634;9.516;2022-07-17T12:31:17;1.30;;;1.20;;
8337;SDS011;4206;48.634;9.516;2022-07-17T12:33:45;2.58;;;1.92;;
8337;SDS011;4206;48.634;9.516;2022-07-17T12:36:12;1.50;;;1.40;;
8337;SDS011;4206;48.634;9.516;2022-07-17T12:38:37;1.83;;;1.50;;
8337;SDS011;4206;48.634;9.516;2022-07-17T12:41:03;3.15;;;1.60;;
8337;SDS011;4206;48.634;9.516;2022-07-17T12:43:29;2.08;;;1.60;;
8337;SDS011;4206;48.634;9.516;2022-07-17T12:45:55;1.90;;;1.80;;
8337;SDS011;4206;48.634;9.516;2022-07-17T12:48:21;2.05;;;1.73;;
8337;SDS011;4206;48.634;9.516;2022-07-17T12:50:47;4.30;;;1.98;;
8337;SDS011;4206;48.634;9.516;2022-07-17T12:53:13;1.63;;;1.52;;
8337;SDS011;4206;48.634;9.516;2022-07-17T12:55:38;2.45;;;1.80;;
8337;SDS011;4206;48.634;9.516;2022-07-17T12:58:04;2.97;;;1.45;;
8337;SDS011;4206;48.634;9.516;2022-07-17T13:00:30;1.83;;;1.70;;
8337;SDS011;4206;48.634;9.516;2022-07-17T13:02:56;2.85;;;2.00;;
8337;SDS011;4206;48.634;9.516;2022-07-17T13:05:22;2.92;;;1.50;;
8337;SDS011;4206;48.634;9.516;2022-07-17T13:07:49;1.67;;;1.60;;
8337;SDS011;4206;48.634;9.516;2022-07-17T13:10:15;2.70;;;1.70;;
8337;SDS011;4206;48.634;9.516;2022-07-17T13:12:41;1.40;;;1.40;;
8337;SDS011;4206;48.634;9.516;2022-07-17T13:15:08;4.07;;;1.90;;
8337;SDS011;4206;48.634;9.516;2022-07-17T13:17:34;1.70;;;1.60;;
8337;SDS011;4206;48.634;9.516;2022-07-17T13:20:01;3.10;;;1.80;;
8337;SDS011;4206;48.634;9.516;2022-07-17T13:22:29;4.20;;;1.73;;
8337;SDS011;4206;48.634;9.516;2022-07-17T13:24:55;1.60;;;1.50;;
8337;SDS011;4206;48.634;9.516;2022-07-17T13:27:20;1.70;;;1.60;;
8337;SDS011;4206;48.634;9.516;2022-07-17T13:29:49;1.33;;;1.33;;
8337;SDS011;4206;48.634;9.516;2022-07-17T13:32:15;1.92;;;1.40;;
8337;SDS011;4206;48.634;9.516;2022-07-17T13:34:40;1.83;;;1.58;;
8337;SDS011;4206;48.634;9.516;2022-07-17T13:37:07;1.35;;;1.25;;
8337;SDS011;4206;48.634;9.516;2022-07-17T13:39:33;2.50;;;1.30;;
8337;SDS011;4206;48.634;9.516;2022-07-17T13:41:59;1.63;;;1.52;;
8337;SDS011;4206;48.634;9.516;2022-07-17T13:44:25;1.52;;;1.42;;
8337;SDS011;4206;48.634;9.516;2022-07-17T13:46:51;3.50;;;1.45;;
8337;SDS011;4206;48.634;9.516;2022-07-17T13:49:17;2.35;;;1.40;;
8337;SDS011;4206;48.634;9.516;2022-07-17T13:51:42;2.65;;;1.30;;
8337;SDS011;4206;48.634;9.516;2022-07-17T13:54:08;1.42;;;1.20;;
8337;SDS011;4206;48.634;9.516;2022-07-17T13:56:34;1.98;;;1.35;;
8337;SDS011;4206;48.634;9.516;2022-07-17T13:59:00;1.35;;;1.25;;
8337;SDS011;4206;48.634;9.516;2022-07-17T14:01:27;1.77;;;1.20;;
8337;SDS011;4206;48.634;9.516;2022-07-17T14:03:53;1.00;;;1.00;;
8337;SDS011;4206;48.634;9.516;2022-07-17T14:06:19;3.45;;;1.60;;
8337;SDS011;4206;48.634;9.516;2022-07-17T14:08:45;1.40;;;1.30;;
8337;SDS011;4206;48.634;9.516;2022-07-17T14:11:11;0.90;;;0.90;;
8337;SDS011;4206;48.634;9.516;2022-07-17T14:13:37;2.80;;;1.27;;
8337;SDS011;4206;48.634;9.516;2022-07-17T14:16:03;2.08;;;0.98;;
8337;SDS011;4206;48.634;9.516;2022-07-17T14:18:29;1.15;;;1.10;;
8337;SDS011;4206;48.634;9.516;2022-07-17T14:20:55;1.83;;;1.10;;
8337;SDS011;4206;48.634;9.516;2022-07-17T14:23:21;1.88;;;1.30;;
8337;SDS011;4206;48.634;9.516;2022-07-17T14:25:47;2.55;;;1.30;;
8337;SDS011;4206;48.634;9.516;2022-07-17T14:28:13;1.98;;;1.08;;
8337;SDS011;4206;48.634;9.516;2022-07-17T14:30:39;0.95;;;0.93;;
8337;SDS011;4206;48.634;9.516;2022-07-17T14:33:05;1.40;;;1.30;;
8337;SDS011;4206;48.634;9.516;2022-07-17T14:35:31;1.92;;;1.80;;
8337;SDS011;4206;48.634;9.516;2022-07-17T14:37:57;1.08;;;0.95;;
8337;SDS011;4206;48.634;9.516;2022-07-17T14:40:24;1.15;;;1.00;;
8337;SDS011;4206;48.634;9.516;2022-07-17T14:42:49;1.35;;;1.25;;
8337;SDS011;4206;48.634;9.516;2022-07-17T14:45:15;2.13;;;1.20;;
8337;SDS011;4206;48.634;9.516;2022-07-17T14:47:41;1.63;;;1.10;;
8337;SDS011;4206;48.634;9.516;2022-07-17T14:50:07;1.92;;;1.27;;
8337;SDS011;4206;48.634;9.516;2022-07-17T14:52:33;1.23;;;1.00;;
8337;SDS011;4206;48.634;9.516;2022-07-17T14:54:59;1.17;;;1.08;;
8337;SDS011;4206;48.634;9.516;2022-07-17T14:57:25;1.45;;;1.35;;
8337;SDS011;4206;48.634;9.516;2022-07-17T14:59:51;1.10;;;1.00;;
8337;SDS011;4206;48.634;9.516;2022-07-17T15:02:17;2.47;;;1.23;;
8337;SDS011;4206;48.634;9.516;2022-07-17T15:04:43;4.30;;;1.10;;
8337;SDS011;4206;48.634;9.516;2022-07-17T15:07:09;2.08;;;1.63;;
8337;SDS011;4206;48.634;9.516;2022-07-17T15:09:35;1.23;;;1.13;;
8337;SDS011;4206;48.634;9.516;2022-07-17T15:12:00;2.30;;;1.67;;
8337;SDS011;4206;48.634;9.516;2022-07-17T15:14:26;1.17;;;1.08;;
8337;SDS011;4206;48.634;9.516;2022-07-17T15:16:52;1.70;;;1.05;;
8337;SDS011;4206;48.634;9.516;2022-07-17T15:19:17;3.20;;;1.30;;
8337;SDS011;4206;48.634;9.516;2022-07-17T15:21:43;2.42;;;1.17;;
8337;SDS011;4206;48.634;9.516;2022-07-17T15:24:09;1.48;;;1.20;;
8337;SDS011;4206;48.634;9.516;2022-07-17T15:26:34;2.58;;;0.90;;
8337;SDS011;4206;48.634;9.516;2022-07-17T15:29:00;2.92;;;1.20;;
8337;SDS011;4206;48.634;9.516;2022-07-17T15:31:26;1.23;;;1.10;;
8337;SDS011;4206;48.634;9.516;2022-07-17T15:33:52;1.20;;;1.10;;
8337;SDS011;4206;48.634;9.516;2022-07-17T15:36:17;1.17;;;1.08;;
8337;SDS011;4206;48.634;9.516;2022-07-17T15:38:57;6.05;;;1.08;;
8337;SDS011;4206;48.634;9.516;2022-07-17T15:41:25;1.35;;;1.25;;
8337;SDS011;4206;48.634;9.516;2022-07-17T15:43:51;1.80;;;1.23;;
8337;SDS011;4206;48.634;9.516;2022-07-17T15:46:17;2.30;;;1.10;;